Weather at Lydd London Ashford Airport

Public forecast

Using degrees Celsius for public forecast. Weather courtesy of forecast.io.

Current aviation weather report (METAR) for Lydd London Ashford Airport

2024/07/16 03:20 (retrieved 30 minutes ago)

EGMD 160320Z AUTO 23015KT 9999 BKN009/// BKN014/// OVC022/// 16/15 Q1007

Closest aviation forecast (TAF) to Lydd London Ashford Airport

Forecast is more than 6 hours old.

Closest forecast is RAF Northolt, 62.3 nm (115.4 km) NW.

2024/07/15 18:12 Ammendment (retrieved 10 hours ago)

TAF AMD TAF AMD EGWU 151907Z 1518/1612 CNL